Gladstone, NM (88422)

2:01 AM MST on January 30, 2015 (GMT -0700)
Raton Municipal-Crews | Change Station
CLOSE
Current Station
Airport
Location: Raton,
Elevation: 6352 ft
Nearby Weather Stations
Active Advisory: Winter Weather Advisory

Elev 6352 ft 36.74 °N, 104.50 °W | Updated 8 minutes ago

Overcast
Overcast
33 °F
Feels Like 28 °F
N
6
Wind Variable Wind from WSW

Today
High -- | Low -- °F
--% Chance of Precip.
Yesterday
High -- | Low -- °F
Precip. -- in
6:58 AM 5:20 PM
Waxing Gibbous, 81% visible
Pressure 30.40 in
Visibility 10.0 miles
Clouds Few 3800 ft
Mostly Cloudy 5500 ft
Overcast 7000 ft
Windchill 28 °F
Dew Point 28 °F
Humidity 82%
Rainfall 0.00 in
Snow Depth Not available.
UV 0 out of 12
Pollen 2.00 out of 12
Air Quality Not available.
Flu Activity Not available.
METAR KRTN 300853Z AUTO 25005KT 10SM FEW038 BKN055 OVC070 01/M02 A3042 RMK AO2 SLP292 60000 T00061022 56011

More Conditions Fewer Conditions

Pressure 30.40 in
Visibility 10.0 miles
Clouds Few 3800 ft
Mostly Cloudy 5500 ft
Overcast 7000 ft
Windchill 28 °F
Dew Point 28 °F
Humidity 82%
Rainfall 0.00 in
Snow Depth Not available.
UV 0 out of 12
Pollen 2.00 out of 12
Air Quality Not available.
Flu Activity Not available.
METAR KRTN 300853Z AUTO 25005KT 10SM FEW038 BKN055 OVC070 01/M02 A3042 RMK AO2 SLP292 60000 T00061022 56011

More Conditions Fewer Conditions

Nowcast | as of 1:57 am MST on January 30, 2015

Light rain and snow will develop across eastern New Mexico through the overnight hours. No significant accumulations are expected through 5 am MST aside from an inch or so around Raton Pass.

×

10-Day Weather Forecast

Almanac

Astronomy

Jan. 30, 2015 Rise Set
Actual Time
Civil Twilight
Nautical Twilight
Astronomical Twilight
Moon
Length of Visible Light
Length of Day
Tomorrow will be .
, % of the Moon is Illuminated

Today's Extremes

State Highs State Lows

Community

WunderPhotos

Upload Photos

1,791,736 photos uploaded!

WunderBlogs® & News

Nearby

Air Quality

  Air Quality AQ Index Pollutant
Not available.

Snow Depth

Station Depth Elevation

Earthquake Activity

City Distance Mag. Time & Date
Minimum magnitude displayed is 2.5.

Coastal Water Temperatures

Place Temperature

Nearby Weather Stations